Time;durP1;ratioP1;P1;durP2;ratioP2;P2;SDS_P1;SDS_P2;PMS_P1;PMS_P2;Temp;Humidity;BMP_temperature;BMP_pressure;BME280_temperature;BME280_humidity;BME280_pressure;Samples;Min_cycle;Max_cycle;Signal;HPM_P1;HPM_P2
2023/08/08 00:00:58;;;;;;;0.50;0.50;;;20.30;64.20;;;20.41;50.63;94944.78;5054846;28;20187;-38
2023/08/08 00:03:26;;;;;;;0.40;0.40;;;20.30;64.20;;;20.41;50.15;94942.13;5054434;28;20528;-39
2023/08/08 00:05:53;;;;;;;0.50;0.50;;;20.30;64.10;;;20.40;50.33;94938.66;5054537;28;20203;-38
2023/08/08 00:08:20;;;;;;;0.50;0.50;;;20.30;64.10;;;20.40;50.12;94949.31;5055078;28;20202;-38
2023/08/08 00:10:48;;;;;;;0.50;0.50;;;20.30;64.10;;;20.39;50.10;94934.41;5054455;28;20202;-39
2023/08/08 00:13:15;;;;;;;0.40;0.40;;;20.30;64.00;;;20.39;50.23;94946.91;5054507;28;20255;-38
2023/08/08 00:15:42;;;;;;;0.50;0.50;;;20.30;64.00;;;20.39;50.68;94949.59;5054657;28;20208;-39
2023/08/08 00:18:09;;;;;;;0.50;0.50;;;20.30;64.20;;;20.39;50.49;94946.91;5053364;28;20229;-38
2023/08/08 00:20:37;;;;;;;0.50;0.50;;;20.30;64.20;;;20.39;50.28;94954.91;5054641;28;20627;-39
2023/08/08 00:23:04;;;;;;;0.50;0.50;;;20.20;65.20;;;20.37;50.13;94946.38;5054577;28;20193;-38
2023/08/08 00:25:31;;;;;;;0.50;0.50;;;20.20;64.30;;;20.37;50.58;94952.47;5054604;28;20199;-39
2023/08/08 00:27:58;;;;;;;0.50;0.50;;;20.30;64.30;;;20.38;50.67;94950.63;5057399;28;20198;-38
2023/08/08 00:30:25;;;;;;;0.40;0.40;;;20.30;64.40;;;20.39;50.47;94949.59;5057184;28;20270;-38
2023/08/08 00:32:53;;;;;;;0.50;0.50;;;20.30;64.30;;;20.39;50.69;94946.91;5056937;28;20210;-38
2023/08/08 00:35:20;;;;;;;0.50;0.50;;;20.30;64.20;;;20.38;50.50;94945.31;5058010;28;20209;-39
2023/08/08 00:37:48;;;;;;;0.43;0.43;;;20.20;64.10;;;20.38;50.16;94950.63;5057241;28;20292;-38
2023/08/08 00:40:15;;;;;;;0.50;0.50;;;20.30;64.10;;;20.36;50.13;94952.75;5058414;28;20229;-39
2023/08/08 00:42:43;;;;;;;0.60;0.60;;;20.20;63.90;;;20.35;50.20;94946.63;5056723;28;20593;-38
2023/08/08 00:45:10;;;;;;;0.50;0.50;;;20.20;64.10;;;20.36;50.22;94942.09;5057812;28;20230;-39
2023/08/08 00:47:37;;;;;;;0.45;0.45;;;20.20;64.00;;;20.36;50.63;94955.41;5057780;28;20195;-39
2023/08/08 00:50:05;;;;;;;0.50;0.50;;;20.20;64.20;;;20.35;50.84;94951.94;5056878;28;20201;-39
2023/08/08 00:52:33;;;;;;;0.50;0.50;;;20.20;64.30;;;20.35;50.44;94962.59;5057354;28;20223;-38
2023/08/08 00:55:01;;;;;;;0.50;0.50;;;20.20;64.30;;;20.36;50.91;94955.41;5056777;28;20199;-38
2023/08/08 00:57:28;;;;;;;0.50;0.50;;;20.20;64.20;;;20.34;50.91;94955.66;5056653;28;20288;-38
2023/08/08 00:59:55;;;;;;;0.70;0.70;;;20.20;64.30;;;;;;5057556;28;20282;-38
2023/08/08 01:02:22;;;;;;;0.50;0.50;;;20.30;64.30;;;;;;5057484;28;20196;-38
2023/08/08 01:04:49;;;;;;;0.52;0.52;;;20.30;64.30;;;20.36;50.53;94958.88;5057303;28;20554;-38
2023/08/08 01:07:50;;;;;;;0.57;0.57;;;20.20;64.30;;;20.33;50.58;94964.72;5056419;28;20197;-38
2023/08/08 01:10:24;;;;;;;0.50;0.50;;;20.20;64.40;;;20.32;50.45;94965.75;5057376;28;20251;-39
2023/08/08 01:13:00;;;;;;;0.40;0.40;;;20.30;64.50;;;20.33;50.84;94958.59;5057370;28;20174;-39
2023/08/08 01:15:32;;;;;;;0.50;0.50;;;20.20;64.40;;;20.34;51.02;94962.88;5056677;28;20198;-38
2023/08/08 01:17:59;;;;;;;0.50;0.50;;;20.30;64.50;;;20.32;51.04;94957.78;5056297;28;20645;-39
2023/08/08 01:20:29;;;;;;;0.50;0.50;;;20.20;64.30;;;20.33;50.86;94954.06;5057124;28;20191;-38
2023/08/08 01:23:24;;;;;;;0.50;0.50;;;20.20;64.40;;;20.31;50.82;94956.16;5056665;28;20583;-38
2023/08/08 01:25:55;;;;;;;0.50;0.50;;;20.20;64.40;;;20.30;51.05;94947.38;5056124;28;20219;-39
2023/08/08 01:28:22;;;;;;;0.47;0.47;;;20.20;64.50;;;20.32;51.02;94947.13;5056031;28;20527;-39
2023/08/08 01:30:50;;;;;;;0.50;0.50;;;20.20;65.50;;;20.31;51.03;94942.84;5056063;28;20203;-39
2023/08/08 01:33:17;;;;;;;0.52;0.52;;;20.20;64.60;;;20.32;50.88;94949.78;5055789;28;20206;-38
2023/08/08 01:35:53;;;;;;;0.43;0.43;;;20.30;64.70;;;20.33;51.02;94943.41;5055910;28;20204;-39
2023/08/08 01:38:30;;;;;;;0.50;0.50;;;20.20;64.60;;;20.31;50.96;94940.19;5072297;28;20616;-38
2023/08/08 01:40:59;;;;;;;0.50;0.50;;;20.30;64.70;;;20.32;51.35;94947.13;5057067;28;20234;-39
2023/08/08 01:43:27;;;;;;;0.50;0.50;;;20.20;64.60;;;20.32;50.79;94949.78;5055722;28;20219;-39
2023/08/08 01:45:55;;;;;;;0.50;0.50;;;20.20;64.70;;;20.31;50.77;94933.00;5057050;28;20250;-39
2023/08/08 01:48:22;;;;;;;0.50;0.50;;;20.20;64.70;;;20.33;51.46;94940.72;5055894;28;20229;-38
2023/08/08 01:50:49;;;;;;;0.40;0.40;;;20.30;64.70;;;20.34;51.13;94942.34;5056710;28;20302;-39
2023/08/08 01:53:16;;;;;;;0.50;0.50;;;20.20;64.50;;;20.33;51.23;94937.28;5056236;28;20315;-39
2023/08/08 01:55:44;;;;;;;0.60;0.60;;;20.20;64.60;;;20.34;51.04;94942.34;5056679;28;20642;-39
2023/08/08 01:58:11;;;;;;;0.50;0.50;;;20.30;64.50;;;20.34;50.72;94937.00;5056348;28;20213;-38
2023/08/08 02:00:40;;;;;;;0.50;0.50;;;20.30;64.70;;;20.33;50.67;94938.06;5055420;28;20288;-39
2023/08/08 02:03:08;;;;;;;0.50;0.50;;;20.30;64.70;;;20.33;51.24;94939.94;5055186;28;20620;-39
2023/08/08 02:05:35;;;;;;;0.50;0.50;;;20.20;64.50;;;20.33;51.22;94943.41;5056536;28;20210;-39
2023/08/08 02:08:03;;;;;;;0.50;0.50;;;20.20;64.50;;;20.33;50.94;94942.59;5056210;28;20199;-39
2023/08/08 02:10:30;;;;;;;0.50;0.50;;;20.30;64.70;;;20.33;50.83;94945.28;5056342;28;20629;-39
2023/08/08 02:12:57;;;;;;;0.50;0.50;;;20.20;64.60;;;20.33;50.59;94945.28;5055061;28;20200;-39
2023/08/08 02:15:24;;;;;;;0.50;0.50;;;20.20;64.60;;;20.31;51.24;94941.00;5055172;28;20298;-39
2023/08/08 02:17:52;;;;;;;0.50;0.50;;;20.20;64.60;;;20.33;50.78;94947.94;5055201;28;20654;-38
2023/08/08 02:20:19;;;;;;;0.50;0.50;;;20.20;64.60;;;20.33;51.28;94955.94;5056346;28;20197;-39
2023/08/08 02:22:46;;;;;;;0.47;0.47;;;20.20;64.70;;;20.32;51.32;94947.13;5054959;28;20197;-39
2023/08/08 02:25:14;;;;;;;0.50;0.50;;;20.20;64.70;;;20.32;51.09;94949.78;5055868;28;20190;-39
2023/08/08 02:27:41;;;;;;;0.50;0.50;;;20.20;64.80;;;20.31;51.07;94948.97;5054938;28;20268;-39
2023/08/08 02:30:10;;;;;;;0.50;0.50;;;20.20;64.80;;;20.33;51.07;94942.59;5055816;28;20590;-39
2023/08/08 02:32:37;;;;;;;0.65;0.65;;;20.20;64.70;;;20.33;50.91;94953.25;5056049;28;20298;-39
2023/08/08 02:35:05;;;;;;;0.40;0.40;;;20.30;64.80;;;20.31;50.86;94941.00;5054593;28;20522;-39
2023/08/08 02:37:32;;;;;;;0.50;0.50;;;20.30;64.80;;;20.31;51.07;94948.16;5054689;28;20220;-39
2023/08/08 02:39:59;;;;;;;0.50;0.50;;;20.20;64.70;;;20.32;51.06;94947.13;5055613;28;20188;-39
2023/08/08 02:42:26;;;;;;;0.50;0.50;;;20.20;64.60;;;20.31;50.82;94943.66;5055630;28;20536;-39
2023/08/08 02:44:54;;;;;;;0.45;0.45;;;20.20;64.50;;;20.30;50.83;94934.06;5054430;28;20187;-39
2023/08/08 02:47:21;;;;;;;0.50;0.50;;;20.20;64.60;;;20.31;51.35;94929.53;5038075;28;20297;-38
2023/08/08 02:49:48;;;;;;;0.50;0.50;;;20.30;64.70;;;20.31;50.98;94940.19;5055256;28;20189;-38
2023/08/08 02:52:15;;;;;;;0.40;0.40;;;20.20;64.70;;;20.31;50.88;94926.84;5055819;28;20674;-39
2023/08/08 02:54:42;;;;;;;0.50;0.50;;;20.30;64.70;;;20.30;50.98;94926.06;5054267;28;20199;-39
2023/08/08 02:57:12;;;;;;;0.40;0.40;;;20.20;64.70;;;20.29;50.85;94937.78;5054310;28;20195;-38
2023/08/08 02:59:40;;;;;;;0.52;0.52;;;20.30;64.80;;;20.30;51.20;94934.06;5054394;28;20191;-39
2023/08/08 03:02:08;;;;;;;0.40;0.40;;;20.20;64.70;;;20.29;51.18;94943.09;5054376;28;20199;-39
2023/08/08 03:04:37;;;;;;;0.40;0.40;;;20.20;64.60;;;20.30;50.85;94944.72;5054104;28;20203;-39
2023/08/08 03:07:06;;;;;;;0.50;0.50;;;20.20;65.50;;;20.29;51.02;94951.09;5055428;28;20212;-39
2023/08/08 03:09:36;;;;;;;0.40;0.40;;;20.20;64.60;;;20.28;51.32;94954.00;5054179;28;20203;-38
2023/08/08 03:12:04;;;;;;;0.50;0.50;;;20.20;64.60;;;20.28;50.99;94946.03;5054150;28;20638;-38
2023/08/08 03:14:33;;;;;;;0.50;0.50;;;20.20;64.70;;;20.25;51.00;94942.00;5053937;28;20661;-39
2023/08/08 03:17:02;;;;;;;0.50;0.50;;;20.20;64.70;;;20.28;50.81;94956.69;5054371;28;20203;-39
2023/08/08 03:19:30;;;;;;;0.50;0.50;;;20.20;64.60;;;20.27;50.96;94941.75;5053975;28;20669;-39
2023/08/08 03:21:59;;;;;;;0.50;0.50;;;20.20;64.60;;;20.26;50.73;94934.81;5053991;28;20207;-39
2023/08/08 03:24:26;;;;;;;0.55;0.55;;;20.20;64.60;;;20.26;50.62;94948.13;5053816;28;20301;-39
2023/08/08 03:26:53;;;;;;;0.50;0.50;;;20.20;64.60;;;20.26;50.69;94956.13;5053950;28;20201;-39
2023/08/08 03:29:21;;;;;;;0.40;0.40;;;20.20;64.60;;;20.25;51.01;94957.16;5053941;28;20199;-39
2023/08/08 03:31:48;;;;;;;0.50;0.50;;;20.20;64.60;;;20.25;51.24;94952.66;5053900;28;20677;-39
2023/08/08 03:34:17;;;;;;;0.50;0.50;;;20.20;64.70;;;20.25;50.88;94951.84;5053712;28;20235;-39
2023/08/08 03:36:44;;;;;;;0.50;0.50;;;20.20;64.60;;;20.24;51.22;94952.91;5055285;28;20221;-39
2023/08/08 03:39:12;;;;;;;0.50;0.50;;;20.20;64.70;;;20.24;50.99;94959.03;5053952;28;20227;-38
2023/08/08 03:41:39;;;;;;;0.40;0.40;;;20.20;64.80;;;20.24;51.08;94952.91;5055336;28;20249;-39
2023/08/08 03:44:06;;;;;;;0.50;0.50;;;20.20;64.80;;;20.25;51.40;94954.50;5053614;28;20213;-39
2023/08/08 03:46:34;;;;;;;0.50;0.50;;;20.20;64.90;;;20.25;51.65;94946.50;5054546;28;20217;-39
2023/08/08 03:49:02;;;;;;;0.47;0.47;;;20.20;64.90;;;20.24;51.18;94936.94;5054702;28;20198;-38
2023/08/08 03:51:30;;;;;;;0.40;0.40;;;20.20;64.90;;;20.24;51.46;94936.94;5053545;28;20203;-39
2023/08/08 03:53:57;;;;;;;0.50;0.50;;;20.20;65.00;;;20.26;51.51;94940.94;5053556;28;20197;-39
2023/08/08 03:56:24;;;;;;;0.50;0.50;;;20.20;65.10;;;20.25;51.29;94934.00;5054919;28;20204;-39
2023/08/08 03:58:53;;;;;;;0.57;0.57;;;20.20;65.00;;;20.26;51.32;94937.47;5053574;28;20680;-39
2023/08/08 04:01:21;;;;;;;0.50;0.50;;;20.20;65.00;;;20.26;51.31;94932.16;5054203;28;20201;-39
2023/08/08 04:03:48;;;;;;;0.50;0.50;;;20.20;65.00;;;20.26;51.59;94940.94;5057471;28;20264;-39
2023/08/08 04:06:15;;;;;;;0.40;0.40;;;20.20;65.00;;;20.27;51.94;94941.75;5058842;28;20194;-39
2023/08/08 04:08:43;;;;;;;0.60;0.60;;;20.20;65.10;;;20.27;51.49;94952.41;5057758;28;20312;-39
2023/08/08 04:11:10;;;;;;;0.50;0.50;;;20.20;65.00;;;20.27;51.76;94941.75;5058492;28;20199;-38
2023/08/08 04:13:37;;;;;;;0.50;0.50;;;20.20;65.10;;;20.27;51.43;94947.88;5040967;28;20234;-38
2023/08/08 04:16:04;;;;;;;0.50;0.50;;;20.20;65.10;;;20.27;51.58;94942.53;5058270;28;20256;-39
2023/08/08 04:18:31;;;;;;;0.50;0.50;;;20.20;65.10;;;20.28;51.89;94946.03;5058208;28;20699;-38
2023/08/08 04:20:58;;;;;;;0.50;0.50;;;20.20;65.10;;;20.27;51.61;94955.84;5058297;28;20194;-39
2023/08/08 04:23:25;;;;;;;0.57;0.57;;;20.20;65.10;;;20.28;51.42;94962.78;5058217;28;20190;-38
2023/08/08 04:25:53;;;;;;;0.43;0.43;;;20.20;65.10;;;20.29;51.91;94961.75;5058142;28;20269;-39
2023/08/08 04:28:20;;;;;;;0.50;0.50;;;20.20;65.10;;;20.28;51.50;94956.69;5058388;28;20198;-39
2023/08/08 04:30:47;;;;;;;0.50;0.50;;;20.30;65.10;;;20.28;51.39;94957.47;5058078;28;20201;-39
2023/08/08 04:33:15;;;;;;;0.40;0.40;;;20.30;65.20;;;20.29;51.67;94956.41;5058303;28;20244;-39
2023/08/08 04:35:42;;;;;;;0.50;0.50;;;20.30;65.10;;;20.29;51.46;94963.63;5057915;28;20202;-39
2023/08/08 04:38:09;;;;;;;0.50;0.50;;;20.30;65.10;;;20.29;51.80;94956.41;5058222;28;20250;-39
2023/08/08 04:40:36;;;;;;;0.45;0.45;;;20.30;65.20;;;20.30;51.80;94960.69;5058157;28;20261;-39
2023/08/08 04:43:05;;;;;;;0.50;0.50;;;20.30;65.20;;;20.29;51.69;94958.28;5057921;28;20188;-39
2023/08/08 04:45:33;;;;;;;0.50;0.50;;;20.30;65.20;;;20.29;51.59;94967.06;5057675;28;20205;-39
2023/08/08 04:48:00;;;;;;;0.50;0.50;;;20.30;65.20;;;20.30;51.41;94966.00;5057779;28;20205;-39
2023/08/08 04:50:28;;;;;;;0.50;0.50;;;20.30;65.10;;;20.30;51.82;94958.03;5057743;28;20225;-39
2023/08/08 04:52:55;;;;;;;0.50;0.50;;;20.30;65.10;;;20.30;51.63;94963.34;5057835;28;20247;-39
2023/08/08 04:55:22;;;;;;;0.40;0.40;;;20.30;65.20;;;20.31;51.90;94958.81;5057500;28;20230;-38
2023/08/08 04:57:49;;;;;;;0.40;0.40;;;20.30;65.20;;;20.30;51.66;94955.38;5058319;28;20223;-39
2023/08/08 05:00:17;;;;;;;0.50;0.50;;;20.30;65.10;;;20.29;51.80;94956.41;5057779;28;20196;-39
2023/08/08 05:02:44;;;;;;;0.52;0.52;;;20.30;65.10;;;20.29;51.58;94953.75;5058072;28;20571;-39
2023/08/08 05:05:11;;;;;;;0.40;0.40;;;20.30;65.10;;;20.31;51.80;94962.31;5057305;28;20194;-39
2023/08/08 05:07:39;;;;;;;0.50;0.50;;;20.30;65.10;;;20.31;51.85;94961.47;5040260;28;20206;-39
2023/08/08 05:10:06;;;;;;;0.50;0.50;;;20.30;65.10;;;20.33;51.68;94966.56;5057779;28;20650;-39
2023/08/08 05:12:33;;;;;;;0.50;0.50;;;20.30;65.10;;;20.32;51.55;94968.41;5056761;28;20198;-39
2023/08/08 05:15:00;;;;;;;0.40;0.40;;;20.30;65.10;;;20.33;51.78;94971.91;5057306;28;20286;-39
2023/08/08 05:17:31;;;;;;;0.43;0.43;;;20.30;65.20;;;20.32;51.68;94965.75;5057226;28;20199;-39
2023/08/08 05:19:58;;;;;;;0.50;0.50;;;20.30;65.10;;;20.32;51.97;94968.41;5057440;28;20204;-39
2023/08/08 05:22:26;;;;;;;0.50;0.50;;;20.30;65.10;;;20.33;51.63;94972.69;5057392;28;20283;-39
2023/08/08 05:24:53;;;;;;;0.50;0.50;;;20.30;65.10;;;20.33;51.88;94975.38;5056926;28;20210;-39
2023/08/08 05:27:20;;;;;;;0.30;0.30;;;20.30;65.20;;;20.31;51.85;94980.94;5057594;28;20584;-39
2023/08/08 05:29:47;;;;;;;0.50;0.50;;;20.30;66.00;;;20.33;51.66;94987.88;5056975;28;20255;-39
2023/08/08 05:32:14;;;;;;;0.50;0.50;;;20.30;65.10;;;20.32;51.60;94987.06;5057255;28;20199;-39
2023/08/08 05:34:41;;;;;;;0.50;0.50;;;20.30;65.20;;;20.33;51.65;94985.22;5057152;28;20203;-38
2023/08/08 05:37:08;;;;;;;0.45;0.45;;;20.30;65.20;;;20.33;52.04;94990.56;5056849;28;20278;-39
2023/08/08 05:39:44;;;;;;;0.50;0.50;;;20.30;65.10;;;20.34;51.83;94984.97;5056967;28;20213;-39
2023/08/08 05:42:12;;;;;;;0.50;0.50;;;20.30;65.20;;;20.32;51.71;94989.72;5056763;28;20191;-39
2023/08/08 05:44:41;;;;;;;0.50;0.50;;;20.30;65.10;;;20.34;51.58;94982.31;5056534;28;20574;-38
2023/08/08 05:47:09;;;;;;;0.50;0.50;;;20.30;65.10;;;20.36;51.67;94988.19;5056929;28;20523;-39
2023/08/08 05:49:35;;;;;;;0.47;0.47;;;20.30;65.20;;;;;;5055783;28;20653;-39
2023/08/08 05:52:03;;;;;;;0.40;0.40;;;20.30;65.20;;;20.37;51.58;94983.66;5056671;28;20229;-39
2023/08/08 05:54:30;;;;;;;0.50;0.50;;;20.30;65.20;;;20.36;51.79;94976.72;5056504;28;20214;-39
2023/08/08 05:56:57;;;;;;;0.50;0.50;;;20.30;65.10;;;20.36;51.92;94982.88;5056440;28;20591;-39
2023/08/08 05:59:24;;;;;;;0.50;0.50;;;20.30;65.10;;;20.38;51.48;94985.28;5056426;28;20251;-38
2023/08/08 06:01:51;;;;;;;0.50;0.50;;;20.30;65.10;;;20.37;51.80;94989.78;5056680;28;20195;-39
2023/08/08 06:04:19;;;;;;;0.50;0.50;;;20.30;65.10;;;20.38;51.69;94990.59;5056561;28;20199;-38
2023/08/08 06:06:48;;;;;;;0.40;0.40;;;20.30;65.10;;;20.40;51.86;94986.63;5056260;28;20194;-38
2023/08/08 06:09:16;;;;;;;0.40;0.40;;;20.30;65.00;;;20.39;51.60;94987.66;5056367;28;20191;-39
2023/08/08 06:11:44;;;;;;;0.50;0.50;;;20.30;65.10;;;20.41;51.97;94990.06;5056487;28;20186;-39
2023/08/08 06:14:11;;;;;;;0.50;0.50;;;20.30;65.10;;;20.40;51.58;94994.63;5055312;28;20217;-39
2023/08/08 06:16:38;;;;;;;0.50;0.50;;;20.30;65.10;;;20.40;51.74;94999.94;5055944;28;20212;-39
2023/08/08 06:19:06;;;;;;;0.40;0.40;;;20.40;65.00;;;20.41;51.58;94996.22;5056012;28;20217;-39
2023/08/08 06:21:33;;;;;;;0.50;0.50;;;20.30;65.00;;;20.42;51.72;94999.69;5055354;28;20566;-39
2023/08/08 06:24:00;;;;;;;0.40;0.40;;;20.40;65.10;;;20.41;51.53;95001.56;5055047;28;20648;-38
2023/08/08 06:26:27;;;;;;;0.50;0.50;;;20.30;65.00;;;20.43;51.71;95009.28;5055788;28;20247;-39
2023/08/08 06:28:54;;;;;;;0.40;0.40;;;20.40;65.10;;;20.43;51.29;95011.94;5055918;28;20192;-39
2023/08/08 06:31:22;;;;;;;0.57;0.57;;;20.30;65.00;;;20.43;51.14;95015.44;5055830;28;20205;-38
2023/08/08 06:33:49;;;;;;;0.40;0.40;;;20.40;65.10;;;20.44;51.44;95018.91;5055797;28;20275;-39
2023/08/08 06:36:16;;;;;;;0.50;0.50;;;20.40;65.00;;;20.44;51.84;95014.34;5055589;28;20289;-39
2023/08/08 06:38:43;;;;;;;0.40;0.40;;;20.30;65.00;;;20.44;51.37;95009.03;5055610;28;20246;-38
2023/08/08 06:41:10;;;;;;;0.45;0.45;;;20.30;64.90;;;20.43;51.22;95015.44;5055075;28;20217;-39
2023/08/08 06:43:39;;;;;;;0.50;0.50;;;20.30;64.90;;;20.43;51.08;95012.78;5055872;28;20321;-39
2023/08/08 06:46:06;;;;;;;0.50;0.50;;;20.40;64.90;;;20.44;51.33;95014.34;5055520;28;20200;-38
2023/08/08 06:48:33;;;;;;;0.50;0.50;;;20.40;65.00;;;20.44;51.25;95013.56;5055743;28;20208;-38
2023/08/08 06:51:00;;;;;;;0.40;0.40;;;20.40;65.00;;;20.45;51.34;95009.84;5055709;28;20635;-39
2023/08/08 06:53:27;;;;;;;0.40;0.40;;;20.40;65.00;;;20.45;51.55;95007.19;5055299;28;20265;-39
2023/08/08 06:55:54;;;;;;;0.43;0.43;;;20.40;65.00;;;20.47;51.27;95013.88;5055482;28;20257;-39
2023/08/08 06:58:22;;;;;;;0.45;0.45;;;20.40;65.00;;;20.46;51.44;95008.78;5055503;28;20205;-38
2023/08/08 07:00:50;;;;;;;0.50;0.50;;;20.40;65.00;;;20.48;51.56;95004.00;5055278;28;20197;-39
2023/08/08 07:03:18;;;;;;;0.50;0.50;;;20.40;65.00;;;20.50;51.35;95006.44;5055280;28;20203;-38
2023/08/08 07:05:45;;;;;;;0.40;0.40;;;20.40;65.00;;;20.49;51.38;95010.94;5070953;28;20261;-39
2023/08/08 07:08:12;;;;;;;0.50;0.50;;;20.40;65.00;;;20.50;51.16;95001.09;5055273;28;20194;-39
2023/08/08 07:10:40;;;;;;;0.52;0.52;;;20.40;65.00;;;20.51;51.30;95008.84;5055666;28;20209;-39
2023/08/08 07:13:07;;;;;;;0.50;0.50;;;20.40;64.80;;;20.52;51.39;95004.31;5055158;28;20271;-39
2023/08/08 07:15:34;;;;;;;0.40;0.40;;;20.40;64.80;;;20.52;51.29;95004.31;5055345;28;20279;-39
2023/08/08 07:18:01;;;;;;;0.43;0.43;;;20.40;65.70;;;20.52;51.23;95005.13;5055063;28;20273;-38
2023/08/08 07:20:29;;;;;;;0.40;0.40;;;20.40;64.80;;;20.54;51.50;95000.31;5054959;28;20237;-39
2023/08/08 07:22:56;;;;;;;0.40;0.40;;;20.40;64.80;;;20.54;51.23;94996.88;5055242;28;20248;-38
2023/08/08 07:25:23;;;;;;;0.47;0.47;;;20.40;64.70;;;20.53;51.35;94998.75;5054794;28;20208;-39
2023/08/08 07:27:51;;;;;;;0.50;0.50;;;20.40;64.70;;;20.53;51.41;95000.59;5053999;28;20195;-39
2023/08/08 07:30:18;;;;;;;0.40;0.40;;;20.40;64.70;;;20.53;51.39;95001.41;5054038;28;20282;-39
2023/08/08 07:32:45;;;;;;;0.50;0.50;;;20.40;64.70;;;20.54;50.93;95004.88;5055400;28;20558;-39
2023/08/08 07:35:12;;;;;;;0.50;0.50;;;20.40;64.60;;;20.56;51.13;95005.44;5054424;28;20199;-38
2023/08/08 07:37:39;;;;;;;0.50;0.50;;;20.50;64.70;;;20.56;51.40;95005.44;5055302;28;20192;-39
2023/08/08 07:40:20;;;;;;;0.43;0.43;;;20.50;64.80;;;20.56;51.33;95008.09;5054742;28;20211;-39
2023/08/08 07:42:49;;;;;;;0.50;0.50;;;20.50;64.70;;;20.57;51.22;95002.50;5054772;28;20266;-39
2023/08/08 07:45:17;;;;;;;0.40;0.40;;;20.50;65.20;;;20.58;51.54;95001.44;5054952;28;20199;-39
2023/08/08 07:47:45;;;;;;;0.47;0.47;;;20.50;64.80;;;20.59;51.10;94991.56;5054902;28;20597;-38
2023/08/08 07:50:12;;;;;;;0.50;0.50;;;20.50;64.70;;;20.61;51.29;95002.78;5053835;28;20285;-39
2023/08/08 07:52:40;;;;;;;0.50;0.50;;;20.50;64.70;;;20.63;51.34;95003.34;5053618;28;20230;-39
2023/08/08 07:55:07;;;;;;;0.50;0.50;;;20.50;64.70;;;20.64;51.03;95002.28;5054625;28;20276;-39
2023/08/08 07:57:35;;;;;;;0.40;0.40;;;20.50;64.70;;;20.65;51.21;95001.22;5055243;28;20193;-39
2023/08/08 08:00:12;;;;;;;0.50;0.50;;;20.50;64.60;;;20.67;50.99;94995.66;5054559;28;20242;-39
2023/08/08 08:02:45;;;;;;;0.45;0.45;;;20.60;64.60;;;20.66;50.80;94986.84;5055214;28;20203;-39
2023/08/08 08:05:13;;;;;;;0.50;0.50;;;20.60;64.60;;;20.67;51.01;94979.66;5054807;28;20194;-39
2023/08/08 08:07:41;;;;;;;0.50;0.50;;;20.60;64.70;;;20.69;50.81;94985.53;5054540;28;20226;-39
2023/08/08 08:10:12;;;;;;;0.50;0.50;;;20.60;64.60;;;20.71;50.81;94986.09;5054563;28;20193;-39
2023/08/08 08:12:41;;;;;;;0.40;0.40;;;20.60;64.60;;;20.70;50.76;94982.63;5054574;28;20186;-39
2023/08/08 08:15:10;;;;;;;0.50;0.50;;;20.60;64.60;;;20.73;51.09;94984.03;5054064;28;20218;-39
2023/08/08 08:17:37;;;;;;;0.40;0.40;;;20.60;64.50;;;20.73;50.78;94979.47;5054360;28;20203;-39
2023/08/08 08:20:10;;;;;;;0.50;0.50;;;20.60;64.40;;;20.74;50.80;94983.75;5054643;28;20225;-39
2023/08/08 08:22:38;;;;;;;0.40;0.40;;;20.60;64.40;;;20.74;50.81;94997.09;5054487;28;20191;-39
2023/08/08 08:25:09;;;;;;;0.45;0.45;;;20.60;64.30;;;20.75;50.71;94989.88;5054474;28;20189;-39
2023/08/08 08:27:36;;;;;;;0.47;0.47;;;20.60;64.30;;;20.70;50.72;94979.16;5054324;28;20257;-39
2023/08/08 08:30:06;;;;;;;0.40;0.40;;;20.60;64.00;;;20.74;50.58;94983.75;5054231;28;20199;-39
2023/08/08 08:32:34;;;;;;;0.40;0.40;;;20.60;64.00;;;20.75;50.48;94984.53;5054239;28;20241;-39
2023/08/08 08:35:03;;;;;;;0.40;0.40;;;20.60;64.00;;;20.77;50.75;94985.09;5054306;28;20199;-39
2023/08/08 08:37:30;;;;;;;0.40;0.40;;;20.60;64.10;;;20.76;50.81;94986.97;5054137;28;20196;-39
2023/08/08 08:39:58;;;;;;;0.50;0.50;;;20.70;64.40;;;20.78;50.58;94986.72;5054177;28;20214;-39
2023/08/08 08:42:28;;;;;;;0.40;0.40;;;20.70;64.30;;;20.78;50.54;94978.72;5054616;28;20219;-39
2023/08/08 08:44:58;;;;;;;0.40;0.40;;;20.70;64.10;;;20.79;50.59;94985.66;5054234;28;20186;-39
2023/08/08 08:47:30;;;;;;;0.57;0.57;;;20.70;64.00;;;20.79;50.56;94975.00;5054778;28;20187;-39
2023/08/08 08:49:58;;;;;;;0.50;0.50;;;20.70;64.00;;;20.80;50.28;94973.94;5058135;28;20194;-39
2023/08/08 08:52:26;;;;;;;0.40;0.40;;;20.70;64.10;;;20.81;50.47;94970.19;5057701;28;20289;-39
2023/08/08 08:54:54;;;;;;;0.40;0.40;;;20.60;64.00;;;20.83;50.62;94969.97;5056746;28;20256;-39
2023/08/08 08:57:24;;;;;;;0.40;0.40;;;20.70;64.10;;;20.84;50.63;94971.56;5057792;28;20201;-39
2023/08/08 08:59:52;;;;;;;0.40;0.40;;;20.70;64.00;;;20.85;50.59;94962.50;5058094;28;20210;-39
2023/08/08 09:02:19;;;;;;;0.50;0.50;;;20.70;64.00;;;20.85;50.49;94968.66;5057772;28;20194;-39
2023/08/08 09:04:47;;;;;;;0.60;0.60;;;20.70;64.00;;;20.86;50.43;94954.25;5057455;28;20309;-39
2023/08/08 09:07:17;;;;;;;0.50;0.50;;;20.70;64.00;;;20.88;50.31;94959.34;5056545;28;20259;-39
2023/08/08 09:09:44;;;;;;;0.40;0.40;;;20.70;64.10;;;20.88;50.35;94957.47;5056756;28;20222;-39
2023/08/08 09:12:12;;;;;;;0.40;0.40;;;20.70;64.00;;;20.88;50.39;94954.00;5057563;28;20261;-39
2023/08/08 09:14:41;;;;;;;0.40;0.40;;;20.70;64.00;;;20.88;50.32;94960.13;5056567;28;20227;-39
2023/08/08 09:17:13;;;;;;;0.40;0.40;;;20.80;64.10;;;20.89;50.05;94951.06;5057379;28;20217;-39
2023/08/08 09:19:46;;;;;;;0.50;0.50;;;20.80;64.10;;;20.90;49.91;94954.56;5057390;28;20267;-39
2023/08/08 09:22:14;;;;;;;0.50;0.50;;;20.80;64.10;;;20.92;50.10;94957.75;5057224;28;20189;-39
2023/08/08 09:24:42;;;;;;;0.50;0.50;;;20.80;64.10;;;20.92;50.14;94947.09;5057122;28;20187;-39
2023/08/08 09:27:10;;;;;;;0.50;0.50;;;20.80;64.10;;;20.95;50.22;94941.25;5057221;28;20590;-39
2023/08/08 09:29:38;;;;;;;0.50;0.50;;;20.80;64.10;;;20.96;50.23;94942.88;5056206;28;20190;-39
2023/08/08 09:32:08;;;;;;;0.40;0.40;;;20.80;64.10;;;20.98;50.13;94942.59;5057000;28;20199;-39
2023/08/08 09:34:36;;;;;;;0.50;0.50;;;20.80;64.10;;;21.00;50.22;94941.28;5057210;28;20191;-39
2023/08/08 09:37:05;;;;;;;0.40;0.40;;;20.80;64.10;;;21.02;50.38;94944.50;5057195;28;20532;-39
2023/08/08 09:39:32;;;;;;;0.50;0.50;;;20.80;64.10;;;21.04;50.34;94942.38;5057018;28;20645;-39
2023/08/08 09:42:03;;;;;;;0.50;0.50;;;20.90;64.20;;;21.06;49.84;94944.78;5057088;28;20195;-39
2023/08/08 09:44:34;;;;;;;0.40;0.40;;;20.90;64.20;;;21.09;49.83;94942.41;5057049;28;20182;-39
2023/08/08 09:47:02;;;;;;;0.40;0.40;;;20.90;64.20;;;21.12;50.01;94935.75;5056700;28;20182;-39
2023/08/08 09:49:30;;;;;;;0.40;0.40;;;20.90;64.20;;;21.13;49.92;94926.72;5056704;28;20597;-39
2023/08/08 09:51:57;;;;;;;0.47;0.47;;;20.90;64.20;;;21.15;49.87;94934.44;5055629;28;20246;-39
2023/08/08 09:54:26;;;;;;;0.50;0.50;;;20.90;64.20;;;21.17;49.96;94927.78;5057130;28;20204;-39
2023/08/08 09:56:55;;;;;;;0.40;0.40;;;21.00;64.20;;;21.18;49.54;94931.25;5056804;28;20273;-39
2023/08/08 09:59:22;;;;;;;0.40;0.40;;;21.00;64.20;;;21.21;49.69;94925.41;5055434;28;20326;-39
2023/08/08 10:01:51;;;;;;;0.40;0.40;;;21.00;64.20;;;21.23;49.58;94920.63;5056380;28;20281;-39
2023/08/08 10:04:18;;;;;;;0.40;0.40;;;21.00;64.30;;;21.25;49.56;94921.16;5056396;28;20192;-39
2023/08/08 10:06:45;;;;;;;0.40;0.40;;;21.00;64.30;;;21.27;49.47;94933.16;5071758;28;20226;-39
2023/08/08 10:09:12;;;;;;;0.43;0.43;;;21.10;64.30;;;21.27;49.42;94930.50;5055718;28;20223;-39
2023/08/08 10:11:42;;;;;;;0.57;0.57;;;21.10;64.00;;;21.32;49.11;94927.06;5055677;28;20286;-38
2023/08/08 10:14:10;;;;;;;0.50;0.50;;;21.10;63.80;;;21.31;49.48;94928.13;5056445;28;20199;-39
2023/08/08 10:16:38;;;;;;;0.40;0.40;;;21.10;63.70;;;21.31;49.39;94924.66;5056204;28;20692;-39
2023/08/08 10:19:05;;;;;;;0.50;0.50;;;21.10;63.70;;;21.34;48.98;94924.16;5056373;28;20248;-39
2023/08/08 10:21:41;;;;;;;0.40;0.40;;;21.10;64.70;;;21.34;49.34;94918.81;5055128;28;20308;-39
2023/08/08 10:24:10;;;;;;;0.50;0.50;;;21.10;63.60;;;21.34;49.19;94916.94;5056544;28;20183;-39